createdAt,value
2022-12-17T00:01:09.091Z,5.95
2022-12-17T00:03:56.747Z,5.10
2022-12-17T00:06:45.431Z,6.18
2022-12-17T00:09:31.268Z,6.70
2022-12-17T00:12:17.461Z,4.70
2022-12-17T00:15:03.499Z,5.03
2022-12-17T00:17:49.335Z,4.32
2022-12-17T00:20:36.463Z,4.28
2022-12-17T00:23:24.137Z,5.68
2022-12-17T00:26:12.917Z,5.13
2022-12-17T00:28:59.497Z,4.47
2022-12-17T00:31:46.571Z,4.60
2022-12-17T00:34:35.304Z,4.70
2022-12-17T00:37:24.857Z,4.60
2022-12-17T00:40:10.636Z,5.10
2022-12-17T00:42:56.663Z,4.65
2022-12-17T00:45:53.909Z,4.90
2022-12-17T00:48:36.535Z,4.03
2022-12-17T00:51:22.664Z,4.55
2022-12-17T00:54:10.087Z,4.32
2022-12-17T00:56:55.111Z,4.90
2022-12-17T00:59:42.271Z,5.10
2022-12-17T01:02:28.385Z,4.32
2022-12-17T01:05:14.404Z,4.20
2022-12-17T01:08:01.880Z,4.45
2022-12-17T01:10:52.700Z,4.45
2022-12-17T01:13:42.349Z,3.97
2022-12-17T01:16:30.217Z,5.05
2022-12-17T01:19:17.233Z,4.60
2022-12-17T01:22:04.935Z,4.35
2022-12-17T01:24:51.007Z,4.75
2022-12-17T01:27:39.075Z,4.70
2022-12-17T01:30:26.510Z,4.13
2022-12-17T01:33:19.431Z,5.22
2022-12-17T01:36:05.390Z,5.15
2022-12-17T01:39:06.039Z,5.57
2022-12-17T01:41:52.050Z,4.25
2022-12-17T01:45:11.281Z,5.55
2022-12-17T01:48:00.611Z,4.75
2022-12-17T01:53:37.931Z,3.78
2022-12-17T01:56:25.964Z,5.05
2022-12-17T01:59:12.449Z,4.88
2022-12-17T02:02:00.269Z,5.00
2022-12-17T02:04:47.054Z,5.40
2022-12-17T02:07:50.491Z,4.65
2022-12-17T02:10:42.553Z,6.13
2022-12-17T02:13:37.505Z,5.88
2022-12-17T02:16:31.060Z,5.47
2022-12-17T02:19:26.268Z,6.05
2022-12-17T02:22:16.930Z,5.05
2022-12-17T02:25:11.895Z,5.07
2022-12-17T02:28:07.535Z,5.78
2022-12-17T02:31:04.044Z,5.45
2022-12-17T02:33:50.163Z,5.57
2022-12-17T02:36:36.256Z,6.43
2022-12-17T02:39:22.107Z,6.45
2022-12-17T02:42:12.263Z,6.47
2022-12-17T02:45:00.779Z,6.55
2022-12-17T02:47:47.839Z,6.32
2022-12-17T02:50:33.790Z,5.93
2022-12-17T02:53:21.522Z,6.20
2022-12-17T02:56:07.582Z,6.38
2022-12-17T02:58:56.525Z,6.05
2022-12-17T03:01:52.342Z,5.72
2022-12-17T03:04:38.704Z,5.55
2022-12-17T03:07:25.719Z,5.75
2022-12-17T03:10:11.584Z,6.35
2022-12-17T03:13:01.467Z,6.47
2022-12-17T03:15:47.514Z,6.80
2022-12-17T03:18:34.930Z,6.00
2022-12-17T03:21:20.968Z,6.32
2022-12-17T03:24:06.981Z,6.13
2022-12-17T03:26:52.847Z,5.53
2022-12-17T03:29:39.066Z,6.50
2022-12-17T03:32:24.909Z,5.78
2022-12-17T03:35:12.087Z,6.63
2022-12-17T03:37:57.969Z,6.90
2022-12-17T03:40:40.374Z,5.70
2022-12-17T03:43:27.442Z,6.25
2022-12-17T03:46:13.957Z,6.20
2022-12-17T03:48:59.951Z,7.22
2022-12-17T03:51:47.515Z,6.60
2022-12-17T03:54:33.374Z,7.25
2022-12-17T03:57:19.538Z,6.60
2022-12-17T04:00:05.515Z,6.80
2022-12-17T04:02:58.233Z,7.43
2022-12-17T04:05:44.314Z,7.60
2022-12-17T04:08:31.449Z,7.97
2022-12-17T04:11:17.449Z,8.20
2022-12-17T04:14:03.501Z,7.78
2022-12-17T04:16:49.321Z,8.15
2022-12-17T04:19:35.644Z,7.65
2022-12-17T04:22:21.444Z,7.75
2022-12-17T04:25:08.918Z,8.07
2022-12-17T04:27:54.868Z,8.35
2022-12-17T04:30:52.304Z,8.77
2022-12-17T04:33:38.893Z,8.55
2022-12-17T04:36:24.714Z,7.57
2022-12-17T04:39:10.846Z,8.77
2022-12-17T04:41:58.085Z,8.23
2022-12-17T04:44:44.147Z,8.13
2022-12-17T04:47:30.240Z,8.23
2022-12-17T04:50:16.162Z,7.88
2022-12-17T04:53:02.340Z,8.43
2022-12-17T04:55:48.490Z,8.45
2022-12-17T04:58:35.655Z,8.10
2022-12-17T05:01:21.705Z,8.45
2022-12-17T05:04:07.755Z,7.75
2022-12-17T05:06:53.782Z,8.32
2022-12-17T05:09:48.295Z,8.38
2022-12-17T05:12:34.518Z,7.72
2022-12-17T05:15:21.838Z,8.35
2022-12-17T05:18:11.070Z,9.73
2022-12-17T05:20:57.008Z,8.82
2022-12-17T05:23:43.089Z,8.18
2022-12-17T05:26:38.975Z,9.25
2022-12-17T05:29:25.030Z,9.13
2022-12-17T05:32:12.464Z,10.57
2022-12-17T05:34:58.337Z,9.35
2022-12-17T05:37:44.391Z,8.80
2022-12-17T05:40:30.809Z,10.75
2022-12-17T05:43:18.835Z,8.98
2022-12-17T05:46:05.790Z,8.05
2022-12-17T05:48:54.161Z,8.40
2022-12-17T05:51:40.989Z,8.73
2022-12-17T05:54:26.882Z,10.35
2022-12-17T05:57:13.334Z,8.18
2022-12-17T05:59:59.823Z,9.38
2022-12-17T06:02:46.153Z,8.88
2022-12-17T06:05:33.615Z,8.88
2022-12-17T06:08:23.322Z,7.40
2022-12-17T06:11:09.618Z,7.55
2022-12-17T06:13:55.682Z,9.55
2022-12-17T06:16:41.647Z,9.13
2022-12-17T06:19:27.535Z,8.88
2022-12-17T06:22:14.799Z,8.30
2022-12-17T06:25:00.762Z,8.35
2022-12-17T06:27:52.028Z,10.23
2022-12-17T06:30:38.374Z,8.82
2022-12-17T06:33:25.244Z,8.77
2022-12-17T06:36:15.403Z,9.43
2022-12-17T06:39:07.011Z,8.70
2022-12-17T06:41:52.918Z,8.75
2022-12-17T06:44:46.361Z,10.20
2022-12-17T06:47:32.567Z,8.20
2022-12-17T06:50:18.421Z,8.88
2022-12-17T06:53:04.590Z,8.40
2022-12-17T06:55:51.861Z,8.05
2022-12-17T06:58:37.761Z,8.35
2022-12-17T07:01:24.459Z,9.55
2022-12-17T07:04:10.588Z,8.93
2022-12-17T07:06:56.457Z,7.78
2022-12-17T07:09:42.722Z,7.53
2022-12-17T07:12:32.249Z,7.60
2022-12-17T07:15:18.369Z,8.27
2022-12-17T07:18:13.348Z,7.03
2022-12-17T07:20:59.368Z,7.78
2022-12-17T07:23:45.744Z,8.93
2022-12-17T07:26:31.654Z,6.32
2022-12-17T07:29:19.173Z,7.38
2022-12-17T07:32:05.272Z,7.80
2022-12-17T07:34:51.246Z,7.13
2022-12-17T07:37:37.360Z,8.27
2022-12-17T07:40:24.251Z,7.43
2022-12-17T07:43:10.122Z,8.75
2022-12-17T07:45:57.626Z,7.03
2022-12-17T07:48:45.126Z,7.60
2022-12-17T07:51:31.018Z,6.80
2022-12-17T07:54:17.299Z,7.80
2022-12-17T07:57:03.251Z,8.57
2022-12-17T07:59:49.401Z,7.72
2022-12-17T08:02:37.027Z,9.35
2022-12-17T08:05:23.586Z,7.68
2022-12-17T08:08:09.360Z,7.15
2022-12-17T08:10:55.306Z,8.35
2022-12-17T08:13:41.305Z,8.20
2022-12-17T08:16:27.296Z,8.23
2022-12-17T08:19:14.518Z,8.90
2022-12-17T08:22:00.777Z,8.63
2022-12-17T08:24:46.582Z,9.48
2022-12-17T08:27:32.515Z,7.53
2022-12-17T08:30:18.416Z,8.10
2022-12-17T08:33:04.592Z,8.23
2022-12-17T08:35:52.625Z,9.02
2022-12-17T08:38:38.501Z,7.55
2022-12-17T08:41:24.743Z,8.20
2022-12-17T08:44:10.633Z,7.30
2022-12-17T08:46:56.655Z,6.78
2022-12-17T08:49:42.942Z,8.25
2022-12-17T08:52:30.475Z,7.90
2022-12-17T08:55:16.535Z,6.95
2022-12-17T08:58:11.741Z,7.28
2022-12-17T09:00:58.099Z,7.53
2022-12-17T09:03:44.752Z,7.47
2022-12-17T09:06:35.925Z,8.68
2022-12-17T09:09:26.547Z,9.07
2022-12-17T09:12:12.439Z,7.13
2022-12-17T09:14:58.323Z,7.97
2022-12-17T09:17:44.459Z,7.78
2022-12-17T09:20:30.359Z,7.63
2022-12-17T09:23:16.927Z,9.77
2022-12-17T09:26:11.525Z,8.07
2022-12-17T09:28:57.398Z,9.68
2022-12-17T09:31:43.418Z,9.10
2022-12-17T09:34:29.326Z,8.85
2022-12-17T09:37:15.676Z,7.93
2022-12-17T09:40:01.477Z,7.82
2022-12-17T09:42:59.817Z,8.18
2022-12-17T09:45:53.308Z,8.27
2022-12-17T09:48:46.453Z,6.80
2022-12-17T09:51:40.041Z,7.53
2022-12-17T09:54:44.727Z,6.88
2022-12-17T09:57:35.195Z,7.43
2022-12-17T10:00:28.831Z,7.60
2022-12-17T10:03:29.672Z,9.95
2022-12-17T10:06:22.237Z,8.38
2022-12-17T10:09:17.190Z,9.75
2022-12-17T10:12:03.075Z,9.13
2022-12-17T10:15:04.197Z,11.35
2022-12-17T10:17:51.523Z,8.70
2022-12-17T10:20:43.701Z,7.85
2022-12-17T10:23:29.752Z,9.18
2022-12-17T10:26:16.044Z,9.07
2022-12-17T10:29:16.452Z,9.30
2022-12-17T10:32:02.495Z,8.30
2022-12-17T10:34:56.675Z,8.93
2022-12-17T10:37:46.568Z,8.85
2022-12-17T10:40:41.824Z,8.13
2022-12-17T10:43:42.164Z,8.98
2022-12-17T10:46:27.936Z,10.07
2022-12-17T10:49:28.275Z,10.50
2022-12-17T10:52:20.864Z,9.07
2022-12-17T10:55:15.728Z,9.30
2022-12-17T10:58:02.172Z,9.85
2022-12-17T11:00:51.876Z,9.95
2022-12-17T11:03:47.576Z,8.45
2022-12-17T11:06:42.294Z,9.63
2022-12-17T11:09:42.517Z,8.60
2022-12-17T11:12:30.980Z,8.70
2022-12-17T11:15:22.635Z,9.50
2022-12-17T11:18:11.502Z,9.68
2022-12-17T11:23:54.359Z,10.20
2022-12-17T11:26:45.596Z,9.52
2022-12-17T11:29:32.052Z,8.20
2022-12-17T11:32:38.559Z,8.13
2022-12-17T11:35:31.651Z,10.90
2022-12-17T11:38:27.763Z,8.88
2022-12-17T11:41:19.962Z,9.65
2022-12-17T11:44:20.109Z,9.48
2022-12-17T11:47:14.047Z,8.05
2022-12-17T11:50:06.313Z,9.55
2022-12-17T11:52:59.930Z,9.38
2022-12-17T11:55:55.499Z,10.10
2022-12-17T11:58:46.525Z,9.73
2022-12-17T12:01:41.768Z,14.57
2022-12-17T12:04:46.255Z,10.07
2022-12-17T12:07:40.340Z,10.85
2022-12-17T12:10:36.632Z,9.57
2022-12-17T12:13:34.612Z,10.75
2022-12-17T12:16:30.070Z,8.35
2022-12-17T12:19:31.837Z,8.70
2022-12-17T12:22:30.632Z,9.77
2022-12-17T12:25:39.158Z,9.25
2022-12-17T12:28:36.059Z,9.15
2022-12-17T12:31:32.093Z,10.68
2022-12-17T12:34:24.027Z,10.70
2022-12-17T12:37:11.165Z,10.85
2022-12-17T12:40:05.462Z,11.05
2022-12-17T12:42:57.355Z,10.18
2022-12-17T12:45:54.269Z,10.80
2022-12-17T12:48:52.978Z,9.48
2022-12-17T12:51:44.731Z,11.02
2022-12-17T12:54:43.052Z,9.30
2022-12-17T12:57:46.922Z,11.65
2022-12-17T13:00:57.812Z,10.20
2022-12-17T13:03:47.617Z,11.45
2022-12-17T13:06:42.810Z,10.18
2022-12-17T13:11:54.830Z,10.15
2022-12-17T13:14:27.889Z,10.95
2022-12-17T13:17:00.830Z,10.10
2022-12-17T13:19:38.458Z,12.82
2022-12-17T13:22:29.447Z,11.52
2022-12-17T13:25:15.725Z,12.27
2022-12-17T13:27:45.167Z,11.80
2022-12-17T13:30:32.450Z,11.98
2022-12-17T13:33:14.368Z,10.02
2022-12-17T13:35:53.526Z,12.15
2022-12-17T13:38:31.999Z,12.98
2022-12-17T13:41:10.189Z,12.30
2022-12-17T13:43:46.420Z,11.23
2022-12-17T13:46:20.037Z,11.82
2022-12-17T13:48:57.536Z,11.63
2022-12-17T13:51:28.696Z,11.23
2022-12-17T13:54:00.913Z,11.57
2022-12-17T13:56:31.987Z,12.27
2022-12-17T13:59:08.178Z,11.90
2022-12-17T14:01:46.984Z,11.70
2022-12-17T14:04:26.881Z,10.90
2022-12-17T14:06:57.564Z,11.27
2022-12-17T14:09:34.660Z,11.27
2022-12-17T14:12:23.743Z,10.55
2022-12-17T14:14:55.932Z,11.65
2022-12-17T14:17:26.606Z,11.73
2022-12-17T14:20:00.082Z,11.07
2022-12-17T14:22:35.623Z,11.15
2022-12-17T14:25:14.870Z,12.35
2022-12-17T14:27:53.102Z,12.48
2022-12-17T14:30:25.123Z,13.43
2022-12-17T14:32:53.755Z,12.55
2022-12-17T14:35:27.320Z,12.20
2022-12-17T14:40:16.858Z,11.50
2022-12-17T14:42:45.600Z,11.90
2022-12-17T14:45:24.748Z,10.82
2022-12-17T14:47:55.194Z,11.75
2022-12-17T14:52:58.772Z,10.20
2022-12-17T14:55:39.308Z,10.25
2022-12-17T14:58:20.992Z,11.63
2022-12-17T15:00:53.731Z,10.55
2022-12-17T15:03:25.870Z,10.60
2022-12-17T15:05:59.699Z,10.52
2022-12-17T15:08:32.404Z,11.20
2022-12-17T15:11:02.674Z,11.63
2022-12-17T15:13:31.155Z,11.07
2022-12-17T15:16:00.382Z,11.60
2022-12-17T15:18:29.200Z,11.35
2022-12-17T15:20:57.823Z,11.27
2022-12-17T15:23:26.841Z,10.73
2022-12-17T15:25:56.090Z,10.55
2022-12-17T15:28:28.569Z,10.20
2022-12-17T15:30:57.129Z,10.57
2022-12-17T15:33:25.746Z,9.45
2022-12-17T15:35:54.195Z,10.73
2022-12-17T15:38:22.961Z,10.45
2022-12-17T15:40:54.985Z,10.52
2022-12-17T15:43:22.486Z,10.32
2022-12-17T15:45:53.385Z,9.73
2022-12-17T15:48:23.362Z,10.50
2022-12-17T15:50:51.901Z,11.38
2022-12-17T15:53:20.615Z,11.18
2022-12-17T15:55:49.088Z,11.07
2022-12-17T15:58:19.054Z,10.15
2022-12-17T16:00:47.570Z,10.05
2022-12-17T16:03:17.486Z,10.43
2022-12-17T16:05:45.990Z,11.43
2022-12-17T16:08:14.472Z,10.13
2022-12-17T16:10:43.115Z,9.25
2022-12-17T16:13:11.580Z,10.73
2022-12-17T16:15:40.398Z,9.73
2022-12-17T16:18:09.247Z,9.55
2022-12-17T16:20:39.329Z,9.77
2022-12-17T16:23:07.880Z,11.40
2022-12-17T16:25:36.432Z,10.05
2022-12-17T16:28:05.626Z,9.98
2022-12-17T16:30:34.369Z,10.38
2022-12-17T16:33:03.327Z,9.57
2022-12-17T16:35:31.924Z,9.18
2022-12-17T16:38:01.871Z,9.50
2022-12-17T16:40:30.303Z,9.82
2022-12-17T16:42:58.799Z,8.32
2022-12-17T16:45:27.275Z,8.88
2022-12-17T16:47:55.743Z,10.60
2022-12-17T16:50:24.897Z,9.23
2022-12-17T16:52:53.412Z,9.30
2022-12-17T16:55:23.256Z,8.57
2022-12-17T16:57:51.687Z,9.25
2022-12-17T17:00:20.227Z,9.95
2022-12-17T17:02:53.326Z,9.27
2022-12-17T17:05:22.239Z,10.13
2022-12-17T17:07:50.674Z,10.73
2022-12-17T17:10:19.370Z,8.35
2022-12-17T17:12:49.264Z,9.00
2022-12-17T17:15:17.798Z,8.93
2022-12-17T17:17:55.314Z,8.57
2022-12-17T17:20:24.676Z,9.27
2022-12-17T17:22:53.144Z,9.60
2022-12-17T17:25:22.241Z,8.88
2022-12-17T17:27:52.091Z,9.82
2022-12-17T17:30:20.543Z,9.52
2022-12-17T17:32:49.558Z,9.15
2022-12-17T17:35:18.193Z,8.10
2022-12-17T17:37:46.672Z,9.75
2022-12-17T17:40:15.523Z,6.72
2022-12-17T17:42:48.682Z,8.30
2022-12-17T17:45:21.410Z,7.90
2022-12-17T17:47:49.955Z,8.52
2022-12-17T17:50:18.594Z,9.05
2022-12-17T17:52:47.119Z,8.73
2022-12-17T17:55:15.673Z,8.25
2022-12-17T17:57:44.128Z,8.05
2022-12-17T18:00:13.591Z,8.70
2022-12-17T18:02:43.610Z,10.18
2022-12-17T18:05:12.252Z,12.18
2022-12-17T18:07:40.741Z,10.48
2022-12-17T18:10:10.394Z,11.10
2022-12-17T18:12:56.245Z,10.23
2022-12-17T18:15:24.695Z,9.25
2022-12-17T18:17:54.670Z,10.57
2022-12-17T18:20:23.386Z,10.25
2022-12-17T18:22:52.011Z,8.57
2022-12-17T18:25:20.526Z,9.52
2022-12-17T18:27:49.027Z,8.73
2022-12-17T18:30:17.617Z,8.75
2022-12-17T18:32:46.621Z,12.80
2022-12-17T18:37:46.531Z,8.30
2022-12-17T18:40:15.270Z,9.77
2022-12-17T18:43:01.356Z,8.35
2022-12-17T18:45:29.795Z,9.82
2022-12-17T18:47:58.721Z,9.02
2022-12-17T18:50:28.621Z,15.35
2022-12-17T18:52:57.108Z,10.13
2022-12-17T18:55:25.606Z,9.75
2022-12-17T18:57:54.120Z,10.25
2022-12-17T19:00:22.808Z,10.63
2022-12-17T19:02:51.629Z,7.13
2022-12-17T19:05:20.258Z,7.97
2022-12-17T19:07:50.158Z,8.15
2022-12-17T19:10:18.695Z,8.05
2022-12-17T19:12:47.226Z,8.15
2022-12-17T19:15:15.697Z,8.38
2022-12-17T19:17:44.428Z,8.98
2022-12-17T19:20:13.247Z,9.60
2022-12-17T19:22:42.621Z,9.20
2022-12-17T19:25:12.611Z,8.70
2022-12-17T19:27:41.147Z,7.57
2022-12-17T19:30:11.365Z,7.97
2022-12-17T19:32:39.946Z,10.20
2022-12-17T19:35:09.013Z,9.30
2022-12-17T19:37:37.580Z,8.38
2022-12-17T19:40:07.066Z,8.63
2022-12-17T19:42:37.812Z,7.47
2022-12-17T19:45:07.192Z,8.15
2022-12-17T19:47:35.741Z,8.68
2022-12-17T19:50:05.432Z,7.05
2022-12-17T19:52:34.068Z,7.20
2022-12-17T19:55:02.923Z,8.48
2022-12-17T19:57:32.541Z,7.55
2022-12-17T20:00:02.451Z,7.55
2022-12-17T20:02:41.315Z,8.18
2022-12-17T20:05:10.986Z,8.07
2022-12-17T20:07:41.080Z,8.50
2022-12-17T20:10:10.121Z,10.23
2022-12-17T20:12:38.542Z,7.63
2022-12-17T20:15:09.409Z,9.43
2022-12-17T20:17:37.947Z,10.02
2022-12-17T20:20:09.495Z,9.05
2022-12-17T20:22:37.995Z,6.85
2022-12-17T20:25:09.400Z,10.20
2022-12-17T20:27:38.012Z,6.78
2022-12-17T20:30:09.260Z,8.15
2022-12-17T20:32:38.491Z,9.15
2022-12-17T20:35:08.440Z,10.27
2022-12-17T20:37:37.077Z,10.38
2022-12-17T20:40:06.783Z,9.25
2022-12-17T20:42:35.367Z,11.07
2022-12-17T20:45:03.979Z,11.93
2022-12-17T20:47:33.727Z,9.45
2022-12-17T20:50:02.273Z,9.27
2022-12-17T20:52:30.844Z,9.07
2022-12-17T20:54:59.272Z,6.55
2022-12-17T20:57:27.737Z,9.98
2022-12-17T20:59:56.409Z,8.77
2022-12-17T21:02:27.461Z,11.07
2022-12-17T21:04:57.392Z,10.63
2022-12-17T21:07:25.894Z,10.00
2022-12-17T21:09:54.426Z,9.73
2022-12-17T21:12:22.914Z,10.00
2022-12-17T21:14:51.407Z,6.32
2022-12-17T21:17:19.916Z,9.35
2022-12-17T21:19:48.568Z,10.15
2022-12-17T21:22:18.496Z,9.73
2022-12-17T21:24:46.998Z,8.50
2022-12-17T21:27:17.170Z,11.90
2022-12-17T21:29:45.644Z,11.30
2022-12-17T21:32:14.156Z,9.60
2022-12-17T21:34:42.869Z,7.82
2022-12-17T21:37:11.912Z,8.68
2022-12-17T21:39:41.814Z,7.68
2022-12-17T21:42:27.807Z,8.68
2022-12-17T21:44:56.254Z,7.18
2022-12-17T21:47:24.978Z,7.88
2022-12-17T21:49:53.545Z,6.40
2022-12-17T21:52:22.039Z,6.57
2022-12-17T21:54:52.195Z,8.38
2022-12-17T21:57:20.701Z,9.45
2022-12-17T21:59:49.234Z,8.07
2022-12-17T22:02:19.878Z,9.95
2022-12-17T22:04:48.671Z,9.30
2022-12-17T22:07:18.462Z,7.85
2022-12-17T22:09:56.194Z,10.18
2022-12-17T22:12:57.039Z,8.45
2022-12-17T22:15:26.019Z,6.18
2022-12-17T22:17:58.729Z,8.93
2022-12-17T22:20:28.307Z,8.20
2022-12-17T22:22:56.798Z,7.93
2022-12-17T22:25:25.561Z,5.85
2022-12-17T22:27:55.680Z,8.25
2022-12-17T22:30:42.151Z,6.32
2022-12-17T22:33:23.611Z,8.63
2022-12-17T22:37:25.716Z,6.65
2022-12-17T22:44:19.023Z,5.00
2022-12-17T22:44:45.552Z,5.10
2022-12-17T22:45:02.060Z,6.50
2022-12-17T22:47:34.809Z,4.70
2022-12-17T22:50:03.238Z,7.38
2022-12-17T22:52:32.776Z,8.88
2022-12-17T22:55:01.841Z,7.38
2022-12-17T22:57:30.699Z,7.55
2022-12-17T23:00:05.885Z,5.80
2022-12-17T23:02:34.550Z,7.65
2022-12-17T23:05:04.888Z,7.18
2022-12-17T23:07:33.459Z,5.63
2022-12-17T23:10:01.963Z,5.97
2022-12-17T23:12:47.838Z,7.10
2022-12-17T23:15:18.025Z,4.57
2022-12-17T23:17:46.757Z,5.88
2022-12-17T23:20:15.591Z,4.45
2022-12-17T23:22:44.078Z,4.70
2022-12-17T23:25:12.786Z,4.40
2022-12-17T23:27:44.837Z,2.95
2022-12-17T23:30:14.720Z,5.18
2022-12-17T23:32:45.332Z,5.40
2022-12-17T23:35:14.260Z,5.38
2022-12-17T23:37:43.418Z,5.10
2022-12-17T23:40:13.520Z,4.65
2022-12-17T23:42:42.471Z,3.90
2022-12-17T23:45:11.963Z,4.40
2022-12-17T23:47:42.183Z,4.75
2022-12-17T23:50:12.425Z,6.47
2022-12-17T23:52:40.971Z,4.32
2022-12-17T23:55:11.429Z,4.95
2022-12-17T23:57:39.994Z,3.72
